Time;durP1;ratioP1;P1;durP2;ratioP2;P2;SDS_P1;SDS_P2;PMS_P1;PMS_P2;Temp;Humidity;BMP_temperature;BMP_pressure;BME280_temperature;BME280_humidity;BME280_pressure;Samples;Min_cycle;Max_cycle;Signal;HPM_P1;HPM_P2
2021/09/21 00:01:32;;;;;;;2.50;2.03;;;;;;;12.62;100.00;102012.34;5055039;28;20450;-69
2021/09/21 00:03:59;;;;;;;5.17;1.90;;;;;;;12.58;100.00;102008.53;5054674;28;20517;-69
2021/09/21 00:06:26;;;;;;;3.27;1.40;;;;;;;12.59;100.00;102004.72;5054659;28;20821;-69
2021/09/21 00:08:54;;;;;;;2.37;1.80;;;;;;;12.60;100.00;102014.50;5054982;28;20447;-70
2021/09/21 00:11:20;;;;;;;2.53;1.50;;;;;;;12.57;99.88;102012.34;5054670;28;20496;-69
2021/09/21 00:13:47;;;;;;;2.20;1.77;;;;;;;12.54;99.14;102021.88;5054736;28;20839;-67
2021/09/21 00:16:14;;;;;;;3.60;2.50;;;;;;;12.50;98.99;102017.28;5054766;28;20453;-68
2021/09/21 00:18:40;;;;;;;3.07;2.13;;;;;;;12.47;99.50;102020.53;5054795;28;20438;-70
2021/09/21 00:21:07;;;;;;;2.77;2.07;;;;;;;12.42;100.00;102018.66;5054395;28;20966;-69
2021/09/21 00:23:34;;;;;;;7.60;3.00;;;;;;;12.37;99.99;102018.69;5054809;28;20875;-70
2021/09/21 00:26:01;;;;;;;2.40;1.97;;;;;;;12.35;100.00;102018.97;5053980;28;20449;-68
2021/09/21 00:28:28;;;;;;;2.80;2.20;;;;;;;12.34;100.00;102014.59;5054443;28;20493;-69
2021/09/21 00:30:57;;;;;;;2.60;1.63;;;;;;;12.31;100.00;102009.75;5054466;28;20461;-69
2021/09/21 00:33:24;;;;;;;2.63;1.77;;;;;;;12.33;100.00;102012.16;5054257;28;20478;-69
2021/09/21 00:35:52;;;;;;;2.13;1.60;;;;;;;12.33;100.00;102010.25;5054366;28;20430;-68
2021/09/21 00:38:20;;;;;;;4.67;1.60;;;;;;;12.25;100.00;102008.13;5054370;28;20823;-70
2021/09/21 00:40:47;;;;;;;1.40;1.30;;;;;;;12.29;100.00;102006.47;5054328;28;20446;-69
2021/09/21 00:43:20;;;;;;;4.00;2.87;;;;;;;12.30;100.00;102001.84;5054220;28;20466;-69
2021/09/21 00:45:46;;;;;;;3.33;2.10;;;;;;;12.34;100.00;102000.22;5053920;28;20435;-70
2021/09/21 00:48:13;;;;;;;4.33;2.60;;;;;;;12.38;100.00;102004.81;5054081;28;20860;-70
2021/09/21 00:50:39;;;;;;;2.07;1.60;;;;;;;12.38;100.00;102010.25;5054102;28;20434;-69
2021/09/21 00:53:06;;;;;;;2.40;1.80;;;;;;;12.41;100.00;102010.78;5054039;28;20879;-70
2021/09/21 00:55:33;;;;;;;1.60;1.40;;;;;;;12.42;100.00;102009.69;5054036;28;20446;-70
2021/09/21 00:57:59;;;;;;;3.13;2.03;;;;;;;12.35;100.00;102013.53;5053971;28;20481;-69
2021/09/21 01:00:27;;;;;;;3.00;1.93;;;;;;;12.30;100.00;102021.69;5053618;28;20483;-70
2021/09/21 01:02:53;;;;;;;1.83;1.40;;;;;;;12.23;99.05;102021.19;5053101;28;20443;-70
2021/09/21 01:05:20;;;;;;;3.50;2.40;;;;;;;12.25;99.21;102013.56;5053562;28;20437;-69
2021/09/21 01:07:47;;;;;;;2.63;1.70;;;;;;;12.31;99.96;102017.09;5053444;28;20890;-69
2021/09/21 01:10:16;;;;;;;4.67;2.47;;;;;;;12.30;100.00;102013.53;5053856;28;20477;-69
2021/09/21 01:12:42;;;;;;;2.93;1.70;;;;;;;12.25;100.00;102013.56;5053782;28;20667;-70
2021/09/21 01:15:10;;;;;;;2.70;1.83;;;;;;;12.32;100.00;102016.00;5053451;28;20473;-70
2021/09/21 01:17:38;;;;;;;2.53;2.33;;;;;;;12.33;100.00;102015.69;5053727;28;20461;-69
2021/09/21 01:20:07;;;;;;;3.83;2.60;;;;;;;12.33;100.00;102015.69;5053289;28;20477;-70
2021/09/21 01:22:35;;;;;;;1.83;1.70;;;;;;;12.34;100.00;102016.50;5053365;28;20442;-69
2021/09/21 01:25:01;;;;;;;1.73;1.50;;;;;;;12.30;100.00;102027.13;5053439;28;20458;-70
2021/09/21 01:27:28;;;;;;;4.17;2.67;;;;;;;12.36;100.00;102026.03;5053434;28;20494;-69
2021/09/21 01:29:54;;;;;;;2.40;1.80;;;;;;;12.38;100.00;102025.72;5053183;28;20445;-70
2021/09/21 01:32:22;;;;;;;2.87;1.73;;;;;;;12.38;100.00;102029.25;5053177;28;20838;-69
2021/09/21 01:34:49;;;;;;;2.03;1.20;;;;;;;12.37;99.84;102027.66;5052982;28;20513;-69
2021/09/21 01:37:16;;;;;;;3.87;2.07;;;;;;;12.34;99.44;102030.91;5052680;28;20809;-70
2021/09/21 01:39:45;;;;;;;3.87;2.20;;;;;;;12.28;98.91;102039.38;5053333;28;20446;-70
2021/09/21 01:42:12;;;;;;;2.03;1.20;;;;;;;12.30;98.88;102040.69;5053230;28;20500;-68
2021/09/21 01:44:38;;;;;;;3.40;2.10;;;;;;;12.28;98.34;102029.31;5053197;28;20469;-70
2021/09/21 01:47:05;;;;;;;4.50;2.73;;;;;;;12.23;98.83;102032.03;5053073;28;20450;-70
2021/09/21 01:49:37;;;;;;;1.53;1.00;;;;;;;12.27;99.40;102035.84;5053027;28;20435;-69
2021/09/21 01:52:10;;;;;;;1.70;1.60;;;;;;;12.28;99.78;102018.44;5052911;28;20943;-69
2021/09/21 01:54:49;;;;;;;3.23;1.80;;;;;;;12.30;100.00;102021.69;5052613;28;20474;-70
2021/09/21 02:00:01;;;;;;;2.83;1.60;;;;;;;12.26;100.00;102020.63;5053019;28;20919;-69
2021/09/21 02:02:27;;;;;;;2.57;2.10;;;;;;;12.28;100.00;102017.63;5053030;28;20437;-70
2021/09/21 02:04:54;;;;;;;1.93;1.70;;;;;;;12.25;100.00;102018.19;5053035;28;20470;-67
2021/09/21 02:07:20;;;;;;;4.23;1.60;;;;;;;12.25;100.00;102020.88;5052916;28;20536;-67
2021/09/21 02:09:47;;;;;;;2.33;1.90;;;;;;;12.25;100.00;102018.97;5052996;28;20499;-67
2021/09/21 02:12:13;;;;;;;2.57;1.80;;;;;;;12.25;100.00;102013.56;5052970;28;20815;-67
2021/09/21 02:14:41;;;;;;;8.80;2.27;;;;;;;12.23;100.00;102014.94;5052846;28;20466;-67
2021/09/21 02:17:07;;;;;;;1.97;1.53;;;;;;;12.26;100.00;102014.34;5053045;28;20450;-65
2021/09/21 02:19:34;;;;;;;2.40;1.60;;;;;;;12.23;100.00;102013.03;5052902;28;20445;-67
2021/09/21 02:22:00;;;;;;;2.00;1.80;;;;;;;12.26;100.00;102023.34;5053063;28;20488;-66
2021/09/21 02:24:26;;;;;;;2.60;2.00;;;;;;;12.29;100.00;102014.63;5052759;28;20485;-67
2021/09/21 02:26:53;;;;;;;2.80;2.03;;;;;;;12.30;100.00;102018.16;5052499;28;20820;-66
2021/09/21 02:29:20;;;;;;;1.60;1.03;;;;;;;12.26;100.00;102023.34;5052438;28;20862;-67
2021/09/21 02:31:48;;;;;;;2.33;1.50;;;;;;;12.30;100.00;102015.44;5052758;28;20453;-67
2021/09/21 02:34:14;;;;;;;3.10;1.90;;;;;;;12.25;100.00;102013.56;5052293;28;20504;-66
2021/09/21 02:36:41;;;;;;;6.40;1.77;;;;;;;12.16;99.37;102012.50;5052696;28;20438;-69
2021/09/21 02:39:08;;;;;;;2.63;1.60;;;;;;;12.04;99.27;102014.69;5052787;28;20859;-68
2021/09/21 02:41:35;;;;;;;2.93;2.03;;;;;;;12.07;98.94;102006.00;5052566;28;20446;-70
2021/09/21 02:44:01;;;;;;;2.33;1.50;;;;;;;12.05;97.79;102003.56;5052596;28;20454;-70
2021/09/21 02:46:28;;;;;;;2.43;1.57;;;;;;;12.06;97.15;102017.97;5052650;28;20449;-69
2021/09/21 02:48:55;;;;;;;2.40;1.73;;;;;;;11.97;98.73;102023.13;5053033;28;20922;-70
2021/09/21 02:51:22;;;;;;;1.60;1.40;;;;;;;12.02;99.53;102011.44;5056156;28;20954;-69
2021/09/21 02:53:49;;;;;;;2.33;1.33;;;;;;;12.06;100.00;102017.97;5056300;28;20466;-69
2021/09/21 02:56:16;;;;;;;1.77;1.40;;;;;;;12.15;100.00;102024.47;5056304;28;20446;-70
2021/09/21 02:58:43;;;;;;;2.50;1.57;;;;;;;12.16;100.00;102027.97;5056463;28;20434;-71
2021/09/21 03:01:10;;;;;;;2.03;1.23;;;;;;;12.21;100.00;102033.41;5056370;28;20503;-70
2021/09/21 03:03:43;;;;;;;2.40;1.53;;;;;;;12.18;100.00;102045.66;5056092;28;20469;-69
2021/09/21 03:06:20;;;;;;;2.20;1.83;;;;;;;12.20;100.00;102035.31;5056210;28;20437;-69
2021/09/21 03:08:46;;;;;;;1.97;1.63;;;;;;;12.20;100.00;102043.44;5056078;28;20559;-71
2021/09/21 03:11:17;;;;;;;2.67;2.13;;;;;;;12.25;100.00;102048.88;5056081;28;20449;-71
2021/09/21 03:19:24;;;;;;;1.70;1.47;;;;;;;12.21;100.00;102047.78;5055526;28;20804;-70
2021/09/21 03:21:52;;;;;;;2.40;2.20;;;;;;;12.24;100.00;102049.16;5055861;28;20446;-70
2021/09/21 03:24:18;;;;;;;5.17;1.10;;;;;;;12.19;100.00;102049.97;5055743;28;20470;-70
2021/09/21 03:26:45;;;;;;;1.50;1.37;;;;;;;12.24;100.00;102046.44;5055755;28;20441;-68
2021/09/21 03:29:12;;;;;;;2.00;1.80;;;;;;;12.25;100.00;102048.88;5055620;28;20489;-71
2021/09/21 03:31:38;;;;;;;3.47;1.57;;;;;;;12.22;100.00;102052.16;5055677;28;20453;-71
2021/09/21 03:34:04;;;;;;;2.53;2.23;;;;;;;12.15;98.90;102046.19;5055306;28;20478;-69
2021/09/21 03:36:31;;;;;;;4.93;2.70;;;;;;;12.09;97.38;102050.00;5055544;28;20446;-69
2021/09/21 03:38:59;;;;;;;1.70;1.37;;;;;;;12.00;96.67;102054.38;5055518;28;20442;-69
2021/09/21 03:41:25;;;;;;;2.63;1.57;;;;;;;11.90;97.84;102059.81;5055458;28;20442;-69
2021/09/21 03:43:52;;;;;;;4.90;2.20;;;;;;;11.96;98.36;102054.09;5055365;28;20466;-69
2021/09/21 03:46:18;;;;;;;1.43;1.00;;;;;;;12.03;99.18;102045.66;5055496;28;20442;-70
2021/09/21 03:48:45;;;;;;;1.07;0.97;;;;;;;12.04;99.91;102061.69;5055304;28;20489;-70
2021/09/21 03:51:11;;;;;;;3.40;2.20;;;;;;;12.05;100.00;102047.03;5055261;28;20439;-70
2021/09/21 03:53:38;;;;;;;1.73;1.63;;;;;;;12.06;100.00;102056.78;5055177;28;20508;-70
2021/09/21 03:56:06;;;;;;;3.47;1.97;;;;;;;12.09;100.00;102047.28;5055252;28;20457;-69
2021/09/21 03:58:32;;;;;;;2.67;1.50;;;;;;;12.09;100.00;102053.53;5055181;28;20445;-70
2021/09/21 04:00:59;;;;;;;3.03;2.30;;;;;;;12.07;100.00;102053.00;5054119;28;20476;-69
2021/09/21 04:03:25;;;;;;;1.77;1.57;;;;;;;12.14;100.00;102055.44;5054991;28;20469;-71
2021/09/21 04:05:51;;;;;;;3.13;2.27;;;;;;;12.17;100.00;102052.16;5055023;28;20461;-70
2021/09/21 04:08:18;;;;;;;2.20;1.67;;;;;;;12.12;100.00;102052.16;5054893;28;20482;-70
2021/09/21 04:10:44;;;;;;;6.50;2.33;;;;;;;12.09;100.00;102052.72;5054831;28;20438;-69
2021/09/21 04:13:12;;;;;;;2.90;1.87;;;;;;;12.16;100.00;102050.53;5054817;28;20470;-71
2021/09/21 04:15:40;;;;;;;1.90;1.70;;;;;;;12.18;100.00;102055.69;5054756;28;20438;-70
2021/09/21 04:18:08;;;;;;;4.00;2.30;;;;;;;12.20;100.00;102062.47;5054855;28;20438;-70
2021/09/21 04:20:34;;;;;;;2.10;1.60;;;;;;;12.19;100.00;102063.56;5054790;28;20473;-69
2021/09/21 04:23:01;;;;;;;4.43;2.30;;;;;;;12.23;100.00;102067.38;5054652;28;20434;-69
2021/09/21 04:25:29;;;;;;;3.40;1.90;;;;;;;12.25;100.00;102067.88;5054586;28;20438;-70
2021/09/21 04:27:55;;;;;;;4.13;2.87;;;;;;;12.20;100.00;102073.34;5054191;28;20987;-69
2021/09/21 04:30:24;;;;;;;1.97;1.70;;;;;;;12.14;98.72;102076.34;5054516;28;20446;-70
2021/09/21 04:32:51;;;;;;;1.60;1.30;;;;;;;12.02;98.90;102085.59;5054359;28;20500;-69
2021/09/21 04:35:18;;;;;;;3.87;2.13;;;;;;;12.01;98.09;102089.41;5054432;28;20429;-70
2021/09/21 04:37:44;;;;;;;2.93;2.00;;;;;;;11.99;98.54;102082.59;5054418;28;20435;-71
2021/09/21 04:40:12;;;;;;;3.57;2.23;;;;;;;11.94;99.97;102090.75;5054279;28;20457;-71
2021/09/21 04:42:38;;;;;;;2.70;2.00;;;;;;;11.99;100.00;102086.13;5054366;28;20924;-70
2021/09/21 04:45:06;;;;;;;7.00;3.60;;;;;;;12.04;100.00;102094.28;5054070;28;20462;-69
2021/09/21 04:47:34;;;;;;;4.70;2.60;;;;;;;12.06;100.00;102085.88;5054126;28;20442;-70
2021/09/21 04:50:01;;;;;;;4.80;3.03;;;;;;;12.09;100.00;102091.56;5053927;28;20495;-69
2021/09/21 04:52:28;;;;;;;4.17;2.27;;;;;;;12.11;100.00;102094.00;5053831;28;20545;-69
2021/09/21 04:54:54;;;;;;;4.40;3.00;;;;;;;12.12;100.00;102095.63;5053956;28;20465;-70
2021/09/21 04:57:21;;;;;;;4.47;3.00;;;;;;;12.10;100.00;102095.09;5053911;28;20450;-70
2021/09/21 04:59:47;;;;;;;3.40;2.10;;;;;;;12.14;100.00;102093.47;5053909;28;20442;-69
2021/09/21 05:02:13;;;;;;;3.53;2.07;;;;;;;12.17;100.00;102092.88;5053842;28;20496;-70
2021/09/21 05:04:41;;;;;;;3.80;2.47;;;;;;;12.21;100.00;102093.16;5053791;28;20458;-70
2021/09/21 05:07:08;;;;;;;4.07;2.93;;;;;;;12.22;100.00;102098.34;5053845;28;20450;-68
2021/09/21 05:09:34;;;;;;;5.10;2.13;;;;;;;12.24;100.00;102098.88;5053727;28;20508;-68
2021/09/21 05:12:00;;;;;;;5.13;2.63;;;;;;;12.22;100.00;102103.78;5053640;28;20445;-68
2021/09/21 05:14:29;;;;;;;3.67;2.83;;;;;;;12.16;100.00;102107.56;5053359;28;20983;-68
2021/09/21 05:16:55;;;;;;;3.40;2.87;;;;;;;12.12;100.00;102101.88;5053451;28;20454;-69
2021/09/21 05:19:21;;;;;;;2.53;1.53;;;;;;;12.10;100.00;102095.09;5053679;28;20442;-69
2021/09/21 05:21:49;;;;;;;4.33;2.43;;;;;;;12.07;100.00;102099.16;5053593;28;20442;-67
2021/09/21 05:24:16;;;;;;;3.50;2.60;;;;;;;12.04;99.58;102098.88;5053536;28;20458;-68
2021/09/21 05:26:43;;;;;;;4.13;2.93;;;;;;;12.08;99.89;102099.97;5053450;28;20446;-70
2021/09/21 05:29:09;;;;;;;3.70;2.50;;;;;;;12.13;100.00;102102.72;5053426;28;20490;-70
2021/09/21 05:31:35;;;;;;;3.13;1.80;;;;;;;12.19;100.00;102112.47;5053202;28;20477;-70
2021/09/21 05:34:02;;;;;;;2.60;1.83;;;;;;;12.19;100.00;102104.31;5054606;28;20478;-68
2021/09/21 05:36:30;;;;;;;2.10;1.77;;;;;;;12.26;100.00;102113.00;5053082;28;20447;-68
2021/09/21 05:38:57;;;;;;;2.13;1.70;;;;;;;12.29;100.00;102115.16;5053036;28;20443;-69
2021/09/21 05:41:24;;;;;;;3.63;1.77;;;;;;;12.35;100.00;102122.22;5053372;28;20442;-69
2021/09/21 05:43:51;;;;;;;3.23;1.67;;;;;;;12.40;100.00;102123.31;5053200;28;20461;-68
2021/09/21 05:46:17;;;;;;;2.93;1.80;;;;;;;12.41;100.00;102130.38;5053167;28;20442;-70
2021/09/21 05:48:44;;;;;;;2.20;1.80;;;;;;;12.50;100.00;102123.28;5053120;28;20485;-70
2021/09/21 05:51:11;;;;;;;2.60;1.90;;;;;;;12.52;100.00;102137.38;5052965;28;20445;-68
2021/09/21 05:53:37;;;;;;;2.40;2.10;;;;;;;12.57;100.00;102116.47;5052793;28;21002;-69
2021/09/21 05:56:05;;;;;;;2.30;1.83;;;;;;;12.62;100.00;102116.44;5053133;28;20442;-69
2021/09/21 05:58:32;;;;;;;5.73;3.07;;;;;;;12.62;100.00;102121.06;5053079;28;20441;-69
2021/09/21 06:00:58;;;;;;;2.33;1.63;;;;;;;12.60;100.00;102123.22;5052979;28;20441;-69
2021/09/21 06:03:25;;;;;;;6.00;2.50;;;;;;;12.60;100.00;102129.47;5052748;28;20840;-68
2021/09/21 06:05:51;;;;;;;3.43;2.40;;;;;;;12.54;100.00;102130.59;5053076;28;20454;-68
2021/09/21 06:08:18;;;;;;;3.20;2.67;;;;;;;12.60;100.00;102142.25;5052933;28;20446;-68
2021/09/21 06:10:44;;;;;;;3.10;2.23;;;;;;;12.61;100.00;102149.31;5052658;28;20482;-69
2021/09/21 06:13:12;;;;;;;15.83;3.60;;;;;;;12.61;100.00;102149.31;5052961;28;20468;-70
2021/09/21 06:15:39;;;;;;;3.00;1.80;;;;;;;12.63;100.00;102155.31;5052928;28;20446;-68
2021/09/21 06:18:05;;;;;;;4.00;2.60;;;;;;;12.64;100.00;102148.78;5053035;28;20893;-66
2021/09/21 06:20:32;;;;;;;3.10;2.10;;;;;;;12.61;100.00;102157.47;5052897;28;20434;-69
2021/09/21 06:22:59;;;;;;;2.30;1.97;;;;;;;12.54;100.00;102163.22;5052539;28;20489;-67
2021/09/21 06:25:25;;;;;;;3.30;1.93;;;;;;;12.61;100.00;102161.00;5056188;28;20446;-68
2021/09/21 06:27:52;;;;;;;3.17;2.60;;;;;;;12.63;100.00;102160.75;5056920;28;20449;-68
2021/09/21 06:30:20;;;;;;;3.60;2.27;;;;;;;12.71;100.00;102154.75;5056716;28;20512;-68
2021/09/21 06:32:46;;;;;;;4.70;2.70;;;;;;;12.81;100.00;102157.44;5056417;28;20438;-67
2021/09/21 06:35:13;;;;;;;2.53;1.73;;;;;;;12.90;100.00;102165.81;5056823;28;20867;-68
2021/09/21 06:37:40;;;;;;;2.83;2.03;;;;;;;12.96;100.00;102175.59;5056693;28;20443;-68
2021/09/21 06:40:08;;;;;;;3.20;1.97;;;;;;;13.04;99.83;102177.75;5056698;28;20465;-68
2021/09/21 06:42:35;;;;;;;4.20;2.83;;;;;;;13.10;99.19;102182.09;5056542;28;20453;-68
2021/09/21 06:45:03;;;;;;;4.97;2.33;;;;;;;13.09;99.05;102179.63;5056538;28;20462;-68
2021/09/21 06:47:31;;;;;;;2.93;2.30;;;;;;;13.18;98.14;102177.94;5056645;28;20448;-68
2021/09/21 06:49:57;;;;;;;4.30;2.60;;;;;;;13.18;97.70;102188.81;5056307;28;20489;-68
2021/09/21 06:52:24;;;;;;;4.57;2.47;;;;;;;13.20;97.59;102191.28;5056515;28;20449;-68
2021/09/21 06:54:51;;;;;;;3.47;2.20;;;;;;;13.24;97.33;102187.75;5056273;28;20465;-68
2021/09/21 06:57:17;;;;;;;9.73;3.00;;;;;;;13.31;97.27;102185.53;5056347;28;20544;-68
2021/09/21 06:59:44;;;;;;;4.93;3.43;;;;;;;13.37;97.03;102191.78;5056255;28;20446;-67
2021/09/21 07:02:10;;;;;;;5.60;2.40;;;;;;;13.42;96.85;102194.47;5056261;28;20438;-67
2021/09/21 07:04:38;;;;;;;10.27;3.80;;;;;;;13.45;97.01;102193.09;5056273;28;20454;-66
2021/09/21 07:07:05;;;;;;;6.53;4.10;;;;;;;13.51;96.40;102197.44;5056168;28;20448;-66
2021/09/21 07:09:32;;;;;;;4.37;4.00;;;;;;;13.61;96.20;102197.34;5056008;28;20474;-66
2021/09/21 07:11:58;;;;;;;2.87;1.87;;;;;;;13.67;95.55;102189.97;5055783;28;20446;-66
2021/09/21 07:14:25;;;;;;;2.20;1.83;;;;;;;13.71;94.98;102196.47;5055671;28;20486;-67
2021/09/21 07:16:51;;;;;;;5.70;2.40;;;;;;;13.71;94.38;102194.56;5056007;28;20489;-67
2021/09/21 07:19:18;;;;;;;6.17;3.30;;;;;;;13.78;93.50;102192.34;5055866;28;20442;-67
2021/09/21 07:21:47;;;;;;;5.90;2.90;;;;;;;13.79;92.73;102191.25;5055855;28;20532;-67
2021/09/21 07:24:14;;;;;;;2.40;2.10;;;;;;;13.77;93.04;102201.63;5055757;28;20466;-66
2021/09/21 07:26:41;;;;;;;3.27;2.10;;;;;;;13.75;92.67;102201.06;5055842;28;20438;-67
2021/09/21 07:29:08;;;;;;;5.13;2.97;;;;;;;13.76;92.89;102193.72;5055980;28;20580;-66
2021/09/21 07:31:35;;;;;;;4.00;1.90;;;;;;;13.75;92.23;102202.97;5055646;28;20444;-67
2021/09/21 07:34:03;;;;;;;3.50;2.27;;;;;;;13.84;92.57;102206.72;5055349;28;20488;-67
2021/09/21 07:36:30;;;;;;;4.10;2.23;;;;;;;13.89;92.21;102209.41;5053931;28;20545;-67
2021/09/21 07:38:58;;;;;;;14.20;2.70;;;;;;;13.86;91.83;102205.38;5055544;28;20537;-67
2021/09/21 07:41:25;;;;;;;4.80;2.90;;;;;;;13.73;91.72;102208.72;5055485;28;20530;-68
2021/09/21 07:43:51;;;;;;;5.03;2.90;;;;;;;13.79;92.05;102207.59;5055308;28;20545;-68
2021/09/21 07:46:18;;;;;;;2.87;2.23;;;;;;;13.85;91.62;102214.63;5055364;28;20450;-68
2021/09/21 07:48:44;;;;;;;3.10;2.37;;;;;;;13.96;91.19;102218.09;5055326;28;20457;-69
2021/09/21 07:51:11;;;;;;;5.73;2.40;;;;;;;14.07;90.69;102219.63;5054785;28;20486;-65
2021/09/21 07:53:37;;;;;;;5.70;1.93;;;;;;;14.25;90.37;102236.41;5055282;28;20469;-66
2021/09/21 07:56:05;;;;;;;2.87;1.93;;;;;;;14.32;86.88;102234.16;5055248;28;20450;-65
2021/09/21 07:58:32;;;;;;;3.27;2.90;;;;;;;14.37;87.49;102234.13;5055175;28;20446;-68
2021/09/21 08:00:58;;;;;;;4.13;2.70;;;;;;;14.46;86.68;102248.75;5055224;28;20434;-65
2021/09/21 08:03:25;;;;;;;4.37;2.50;;;;;;;14.52;84.55;102247.66;5054938;28;20466;-67
2021/09/21 08:05:52;;;;;;;3.00;1.93;;;;;;;14.53;85.54;102245.75;5054408;28;20826;-66
2021/09/21 08:08:18;;;;;;;2.07;1.73;;;;;;;14.70;86.06;102248.84;5053928;28;20450;-69
2021/09/21 08:10:46;;;;;;;4.03;2.80;;;;;;;14.77;81.74;102262.16;5054875;28;20486;-69
2021/09/21 08:13:14;;;;;;;14.13;3.13;;;;;;;14.81;82.07;102253.09;5054754;28;20466;-68
2021/09/21 08:15:40;;;;;;;2.10;1.47;;;;;;;14.77;81.07;102256.69;5054684;28;20991;-68
2021/09/21 08:18:10;;;;;;;2.20;1.40;;;;;;;14.82;81.17;102253.91;5055161;28;20450;-69
2021/09/21 08:20:37;;;;;;;3.93;2.00;;;;;;;14.84;78.20;102257.97;5054450;28;20458;-68
2021/09/21 08:23:04;;;;;;;2.80;1.80;;;;;;;14.83;81.61;102245.44;5054718;28;20873;-70
2021/09/21 08:25:31;;;;;;;2.83;2.00;;;;;;;14.89;80.92;102240.75;5054597;28;20446;-68
2021/09/21 08:27:57;;;;;;;2.93;1.77;;;;;;;14.99;80.79;102248.00;5054591;28;20544;-69
2021/09/21 08:30:25;;;;;;;4.33;2.63;;;;;;;15.06;82.88;102237.56;5054429;28;20493;-68
2021/09/21 08:32:52;;;;;;;3.10;2.00;;;;;;;15.12;79.70;102245.38;5054317;28;20442;-68
2021/09/21 08:35:18;;;;;;;4.40;2.07;;;;;;;15.28;79.63;102235.13;5054462;28;20453;-69
2021/09/21 08:37:45;;;;;;;6.33;2.47;;;;;;;15.38;78.98;102234.97;5054190;28;20430;-68
2021/09/21 08:40:12;;;;;;;4.70;2.20;;;;;;;15.34;73.05;102231.19;5054377;28;20438;-69
2021/09/21 08:42:39;;;;;;;4.07;1.80;;;;;;;15.40;75.68;102231.94;5054046;28;20954;-68
2021/09/21 08:45:06;;;;;;;3.20;1.80;;;;;;;15.28;74.61;102229.66;5054217;28;20462;-68
2021/09/21 08:47:34;;;;;;;3.90;2.00;;;;;;;15.35;70.93;102238.28;5053538;28;20442;-68
2021/09/21 08:50:02;;;;;;;4.63;2.20;;;;;;;15.41;73.35;102228.13;5054220;28;20512;-68
2021/09/21 08:52:28;;;;;;;4.20;2.27;;;;;;;15.51;71.08;102229.91;5054275;28;20446;-69
2021/09/21 08:54:55;;;;;;;6.00;2.13;;;;;;;15.62;73.39;102248.56;5053719;28;20485;-68
2021/09/21 08:57:22;;;;;;;3.00;1.70;;;;;;;15.70;70.77;102247.13;5054048;28;20851;-69
2021/09/21 08:59:52;;;;;;;3.73;2.30;;;;;;;15.82;71.32;102233.84;5054028;28;20533;-68
2021/09/21 09:02:21;;;;;;;4.43;2.83;;;;;;;15.92;70.34;102241.09;5054993;28;20939;-69
2021/09/21 09:05:01;;;;;;;2.07;1.87;;;;;;;16.00;67.92;102245.88;5053676;28;21047;-68
2021/09/21 09:07:28;;;;;;;3.27;1.93;;;;;;;16.11;69.14;102249.25;5053929;28;20436;-68
2021/09/21 09:10:02;;;;;;;3.47;2.10;;;;;;;16.21;67.97;102245.56;5053749;28;20496;-69
2021/09/21 09:12:31;;;;;;;5.53;2.00;;;;;;;16.15;65.96;102251.09;5053925;28;20484;-68
2021/09/21 09:14:57;;;;;;;3.27;2.30;;;;;;;16.05;65.70;102254.00;5053393;28;20998;-69
2021/09/21 09:17:24;;;;;;;4.30;2.23;;;;;;;16.06;66.63;102250.16;5053676;28;20455;-70
2021/09/21 09:19:52;;;;;;;4.00;2.27;;;;;;;16.12;67.04;102254.44;5053335;28;20438;-68
2021/09/21 09:22:23;;;;;;;4.50;2.40;;;;;;;16.21;64.38;102257.31;5053667;28;20442;-67
2021/09/21 09:24:51;;;;;;;4.50;2.00;;;;;;;16.23;63.90;102249.63;5053509;28;20502;-69
2021/09/21 09:27:20;;;;;;;3.40;1.90;;;;;;;16.25;65.97;102263.00;5053595;28;20452;-69
2021/09/21 09:29:59;;;;;;;1.63;1.40;;;;;;;16.27;64.83;102249.84;5053489;28;20497;-70
2021/09/21 09:32:27;;;;;;;3.60;1.90;;;;;;;16.29;65.17;102253.91;5053471;28;20434;-68
2021/09/21 09:34:58;;;;;;;19.17;2.33;;;;;;;16.38;67.10;102240.38;5053002;28;20474;-69
2021/09/21 09:37:38;;;;;;;3.90;2.23;;;;;;;16.35;66.05;102247.25;5053116;28;20930;-69
2021/09/21 09:40:05;;;;;;;4.20;1.93;;;;;;;16.41;66.43;102239.75;5053347;28;20421;-69
2021/09/21 09:42:33;;;;;;;3.20;1.57;;;;;;;16.45;63.00;102242.69;5053256;28;20450;-69
2021/09/21 09:45:02;;;;;;;3.60;1.63;;;;;;;16.59;66.11;102240.81;5053212;28;20494;-69
2021/09/21 09:47:28;;;;;;;2.30;1.30;;;;;;;16.55;63.64;102237.03;5052842;28;20954;-70
2021/09/21 09:49:55;;;;;;;4.20;2.20;;;;;;;16.56;65.83;102242.25;5053141;28;20485;-70
2021/09/21 09:52:23;;;;;;;3.80;2.00;;;;;;;16.63;64.50;102228.16;5053142;28;20441;-70
2021/09/21 09:54:51;;;;;;;4.20;2.17;;;;;;;16.71;64.41;102223.91;5052880;28;20458;-70
2021/09/21 09:57:17;;;;;;;7.70;2.30;;;;;;;16.79;66.24;102228.72;5052858;28;20442;-70
2021/09/21 09:59:44;;;;;;;3.87;2.27;;;;;;;16.72;62.40;102231.84;5052369;28;20441;-70
2021/09/21 10:02:11;;;;;;;3.43;1.77;;;;;;;16.84;63.12;102234.91;5052862;28;20446;-69
2021/09/21 10:04:39;;;;;;;3.57;2.20;;;;;;;16.81;61.93;102227.28;5052887;28;20466;-70
2021/09/21 10:07:07;;;;;;;2.83;2.00;;;;;;;16.84;63.46;102221.22;5052852;28;20481;-69
2021/09/21 10:09:34;;;;;;;3.93;1.80;;;;;;;16.94;62.87;102225.69;5052819;28;20495;-69
2021/09/21 10:12:02;;;;;;;5.17;2.50;;;;;;;17.00;61.54;102226.38;5052846;28;20864;-70
2021/09/21 10:14:29;;;;;;;3.33;2.13;;;;;;;16.99;64.10;102219.28;5052478;28;20839;-69
2021/09/21 10:17:00;;;;;;;4.03;1.83;;;;;;;17.02;63.19;102214.03;5052528;28;20442;-69
2021/09/21 10:19:28;;;;;;;1.90;1.40;;;;;;;17.18;63.71;102219.16;5052490;28;20942;-70
2021/09/21 10:21:55;;;;;;;3.53;1.83;;;;;;;17.29;61.20;102234.28;5052354;28;20959;-69
2021/09/21 10:24:32;;;;;;;3.00;1.80;;;;;;;17.15;61.95;102226.09;5052624;28;20471;-70
2021/09/21 10:27:04;;;;;;;7.33;1.87;;;;;;;17.16;63.14;102233.19;5052245;28;20450;-70
2021/09/21 10:29:31;;;;;;;2.90;1.50;;;;;;;17.14;62.93;102240.91;5052827;28;20434;-69
2021/09/21 10:31:59;;;;;;;3.43;2.10;;;;;;;17.00;63.39;102223.66;5052718;28;20492;-68
2021/09/21 10:34:26;;;;;;;3.27;1.80;;;;;;;17.02;63.42;102238.66;5052377;28;20477;-68
2021/09/21 10:36:55;;;;;;;3.87;2.10;;;;;;;16.90;64.21;102246.56;5052425;28;20920;-68
2021/09/21 10:39:24;;;;;;;3.97;2.33;;;;;;;16.88;64.13;102241.41;5052047;28;20461;-68
2021/09/21 10:41:53;;;;;;;2.27;1.83;;;;;;;16.94;63.59;102246.78;5052136;28;20449;-68
2021/09/21 10:44:22;;;;;;;2.47;1.73;;;;;;;16.90;63.06;102241.88;5051684;28;20932;-68
2021/09/21 10:46:53;;;;;;;3.53;2.20;;;;;;;16.97;62.42;102241.50;5052609;28;20462;-67
2021/09/21 10:49:32;;;;;;;6.00;2.13;;;;;;;17.14;63.41;102251.84;5052076;28;20437;-68
2021/09/21 10:52:02;;;;;;;2.77;1.90;;;;;;;17.14;61.55;102257.34;5052060;28;20564;-68
2021/09/21 10:54:33;;;;;;;3.93;1.70;;;;;;;17.10;60.30;102261.78;5051839;28;20462;-67
2021/09/21 10:57:15;;;;;;;3.07;1.80;;;;;;;16.91;60.35;102264.63;5052108;28;20787;-68
2021/09/21 10:59:54;;;;;;;3.13;1.67;;;;;;;16.87;61.64;102269.88;5051891;28;20819;-67
2021/09/21 11:02:22;;;;;;;2.87;1.63;;;;;;;16.84;62.05;102275.16;5051954;28;20428;-70
2021/09/21 11:04:48;;;;;;;3.60;2.03;;;;;;;16.80;61.21;102280.41;5051826;28;20791;-68
2021/09/21 11:07:15;;;;;;;3.80;1.67;;;;;;;16.62;61.08;102267.56;5051729;28;20521;-69
2021/09/21 11:09:43;;;;;;;2.90;1.60;;;;;;;16.65;61.30;102278.75;5052351;28;20446;-69
2021/09/21 11:12:12;;;;;;;3.30;1.60;;;;;;;16.63;59.64;102269.19;5055338;28;20477;-69
2021/09/21 11:14:41;;;;;;;3.23;1.60;;;;;;;16.69;61.63;102280.84;5054973;28;20454;-69
2021/09/21 11:17:11;;;;;;;2.97;1.60;;;;;;;16.64;61.94;102281.75;5055386;28;20442;-69
2021/09/21 11:19:38;;;;;;;2.40;1.83;;;;;;;16.64;60.91;102281.75;5055429;28;20464;-68
2021/09/21 11:22:06;;;;;;;5.70;1.90;;;;;;;16.57;61.24;102282.16;5054583;28;20837;-69
2021/09/21 11:24:33;;;;;;;2.17;1.53;;;;;;;16.55;60.93;102278.09;5055249;28;20462;-69
2021/09/21 11:27:02;;;;;;;3.10;2.03;;;;;;;16.45;60.25;102276.34;5055110;28;20446;-69
2021/09/21 11:29:28;;;;;;;3.63;1.73;;;;;;;16.35;61.43;102268.31;5055210;28;20442;-68
2021/09/21 11:31:55;;;;;;;3.03;1.87;;;;;;;16.46;61.00;102258.00;5055017;28;20486;-69